Terminal Aerodrome Forecast
Issued by NWS Wilmington, OH

Current Version | Previous Version | Text Only | Print | Product List | Glossary Off
Versions: 1 2 3 4 5 6 7 8 9 10 11 12 13 14 15 16 17 18 19 20 21

234
FTUS41 KILN 181750
TAFILN
TAF
KILN 181750Z 1818/1918 16007KT P6SM BKN250
     FM190600 15009KT P6SM BKN080 WS020/19045KT
     FM190900 18011KT P6SM VCSH BKN022
     FM191100 19011KT 4SM -SHRA OVC012 WS020/22045KT
     FM191500 20012G22KT P6SM VCSH OVC012=

USA.gov is the U.S. government's official web portal to all federal, state and local government web resources and services.